sensor_id;sensor_type;location;lat;lon;timestamp;P1;durP1;ratioP1;P2;durP2;ratioP2
43337;SDS011;28933;52.492;13.434;2023-12-14T00:02:14;18.45;;;9.10;;
43337;SDS011;28933;52.492;13.434;2023-12-14T00:05:00;17.05;;;10.80;;
43337;SDS011;28933;52.492;13.434;2023-12-14T00:07:46;17.02;;;10.32;;
43337;SDS011;28933;52.492;13.434;2023-12-14T00:10:32;17.52;;;10.52;;
43337;SDS011;28933;52.492;13.434;2023-12-14T00:13:18;15.27;;;9.20;;
43337;SDS011;28933;52.492;13.434;2023-12-14T00:16:04;16.35;;;9.80;;
43337;SDS011;28933;52.492;13.434;2023-12-14T00:18:51;17.88;;;9.73;;
43337;SDS011;28933;52.492;13.434;2023-12-14T00:21:37;16.38;;;11.00;;
43337;SDS011;28933;52.492;13.434;2023-12-14T00:24:22;16.77;;;10.35;;
43337;SDS011;28933;52.492;13.434;2023-12-14T00:27:08;18.92;;;10.60;;
43337;SDS011;28933;52.492;13.434;2023-12-14T00:29:54;19.10;;;11.30;;
43337;SDS011;28933;52.492;13.434;2023-12-14T00:32:40;17.00;;;9.68;;
43337;SDS011;28933;52.492;13.434;2023-12-14T00:35:26;17.13;;;9.55;;
43337;SDS011;28933;52.492;13.434;2023-12-14T00:38:12;18.13;;;10.27;;
43337;SDS011;28933;52.492;13.434;2023-12-14T00:40:58;21.63;;;11.98;;
43337;SDS011;28933;52.492;13.434;2023-12-14T00:43:44;18.00;;;10.02;;
43337;SDS011;28933;52.492;13.434;2023-12-14T00:46:30;16.13;;;10.35;;
43337;SDS011;28933;52.492;13.434;2023-12-14T00:49:16;17.33;;;9.65;;
43337;SDS011;28933;52.492;13.434;2023-12-14T00:52:04;13.85;;;9.50;;
43337;SDS011;28933;52.492;13.434;2023-12-14T00:54:51;15.90;;;8.77;;
43337;SDS011;28933;52.492;13.434;2023-12-14T00:57:36;16.90;;;10.20;;
43337;SDS011;28933;52.492;13.434;2023-12-14T01:00:22;19.05;;;10.45;;
43337;SDS011;28933;52.492;13.434;2023-12-14T01:03:08;16.42;;;9.43;;
43337;SDS011;28933;52.492;13.434;2023-12-14T01:05:54;15.80;;;9.50;;
43337;SDS011;28933;52.492;13.434;2023-12-14T01:08:40;16.02;;;9.10;;
43337;SDS011;28933;52.492;13.434;2023-12-14T01:11:26;17.27;;;10.05;;
43337;SDS011;28933;52.492;13.434;2023-12-14T01:14:12;19.60;;;10.90;;
43337;SDS011;28933;52.492;13.434;2023-12-14T01:16:58;18.05;;;8.75;;
43337;SDS011;28933;52.492;13.434;2023-12-14T01:19:44;15.68;;;8.65;;
43337;SDS011;28933;52.492;13.434;2023-12-14T01:22:30;19.05;;;10.15;;
43337;SDS011;28933;52.492;13.434;2023-12-14T01:25:16;17.08;;;9.60;;
43337;SDS011;28933;52.492;13.434;2023-12-14T01:28:02;18.08;;;8.88;;
43337;SDS011;28933;52.492;13.434;2023-12-14T01:30:48;15.88;;;9.45;;
43337;SDS011;28933;52.492;13.434;2023-12-14T01:33:34;17.67;;;10.23;;
43337;SDS011;28933;52.492;13.434;2023-12-14T01:36:20;14.55;;;8.77;;
43337;SDS011;28933;52.492;13.434;2023-12-14T01:39:07;14.95;;;8.93;;
43337;SDS011;28933;52.492;13.434;2023-12-14T01:41:53;16.70;;;8.75;;
43337;SDS011;28933;52.492;13.434;2023-12-14T01:44:39;15.00;;;8.48;;
43337;SDS011;28933;52.492;13.434;2023-12-14T01:47:25;15.00;;;9.30;;
43337;SDS011;28933;52.492;13.434;2023-12-14T01:50:11;14.55;;;9.07;;
43337;SDS011;28933;52.492;13.434;2023-12-14T01:52:57;13.25;;;7.38;;
43337;SDS011;28933;52.492;13.434;2023-12-14T01:55:42;13.55;;;7.82;;
43337;SDS011;28933;52.492;13.434;2023-12-14T01:58:28;15.52;;;8.65;;
43337;SDS011;28933;52.492;13.434;2023-12-14T02:01:27;23.40;;;10.88;;
43337;SDS011;28933;52.492;13.434;2023-12-14T02:04:22;13.32;;;8.43;;
43337;SDS011;28933;52.492;13.434;2023-12-14T02:07:10;15.57;;;7.85;;
43337;SDS011;28933;52.492;13.434;2023-12-14T02:09:56;11.52;;;7.18;;
43337;SDS011;28933;52.492;13.434;2023-12-14T02:12:42;11.25;;;6.93;;
43337;SDS011;28933;52.492;13.434;2023-12-14T02:15:28;12.23;;;7.20;;
43337;SDS011;28933;52.492;13.434;2023-12-14T02:18:14;11.10;;;6.97;;
43337;SDS011;28933;52.492;13.434;2023-12-14T02:21:00;12.60;;;7.35;;
43337;SDS011;28933;52.492;13.434;2023-12-14T02:23:46;13.40;;;6.72;;
43337;SDS011;28933;52.492;13.434;2023-12-14T02:26:32;11.50;;;7.18;;
43337;SDS011;28933;52.492;13.434;2023-12-14T02:29:18;9.43;;;5.85;;
43337;SDS011;28933;52.492;13.434;2023-12-14T02:32:04;8.35;;;5.43;;
43337;SDS011;28933;52.492;13.434;2023-12-14T02:34:50;9.77;;;5.65;;
43337;SDS011;28933;52.492;13.434;2023-12-14T02:37:36;11.27;;;6.40;;
43337;SDS011;28933;52.492;13.434;2023-12-14T02:40:22;12.90;;;6.30;;
43337;SDS011;28933;52.492;13.434;2023-12-14T02:43:08;11.38;;;6.40;;
43337;SDS011;28933;52.492;13.434;2023-12-14T02:45:54;10.98;;;7.25;;
43337;SDS011;28933;52.492;13.434;2023-12-14T02:48:46;9.38;;;6.05;;
43337;SDS011;28933;52.492;13.434;2023-12-14T02:51:32;11.50;;;6.60;;
43337;SDS011;28933;52.492;13.434;2023-12-14T02:54:18;11.85;;;7.43;;
43337;SDS011;28933;52.492;13.434;2023-12-14T02:57:04;14.02;;;7.95;;
43337;SDS011;28933;52.492;13.434;2023-12-14T02:59:50;13.82;;;8.15;;
43337;SDS011;28933;52.492;13.434;2023-12-14T03:02:36;12.82;;;7.85;;
43337;SDS011;28933;52.492;13.434;2023-12-14T03:05:22;10.90;;;7.60;;
43337;SDS011;28933;52.492;13.434;2023-12-14T03:08:08;15.15;;;7.68;;
43337;SDS011;28933;52.492;13.434;2023-12-14T03:10:54;12.13;;;7.47;;
43337;SDS011;28933;52.492;13.434;2023-12-14T03:13:40;12.43;;;8.63;;
43337;SDS011;28933;52.492;13.434;2023-12-14T03:16:26;12.73;;;8.18;;
43337;SDS011;28933;52.492;13.434;2023-12-14T03:19:11;18.75;;;8.20;;
43337;SDS011;28933;52.492;13.434;2023-12-14T03:21:57;13.32;;;7.63;;
43337;SDS011;28933;52.492;13.434;2023-12-14T03:24:43;14.13;;;7.80;;
43337;SDS011;28933;52.492;13.434;2023-12-14T03:27:29;13.77;;;7.82;;
43337;SDS011;28933;52.492;13.434;2023-12-14T03:30:15;12.73;;;7.63;;
43337;SDS011;28933;52.492;13.434;2023-12-14T03:33:01;14.05;;;8.07;;
43337;SDS011;28933;52.492;13.434;2023-12-14T03:35:47;13.20;;;7.75;;
43337;SDS011;28933;52.492;13.434;2023-12-14T03:38:33;14.85;;;8.00;;
43337;SDS011;28933;52.492;13.434;2023-12-14T03:41:19;10.65;;;7.80;;
43337;SDS011;28933;52.492;13.434;2023-12-14T03:44:05;15.95;;;8.75;;
43337;SDS011;28933;52.492;13.434;2023-12-14T03:46:51;13.30;;;7.32;;
43337;SDS011;28933;52.492;13.434;2023-12-14T03:49:39;13.30;;;7.32;;
43337;SDS011;28933;52.492;13.434;2023-12-14T03:52:25;14.40;;;8.55;;
43337;SDS011;28933;52.492;13.434;2023-12-14T03:55:13;16.73;;;8.52;;
43337;SDS011;28933;52.492;13.434;2023-12-14T03:58:00;13.25;;;7.75;;
43337;SDS011;28933;52.492;13.434;2023-12-14T04:00:46;16.73;;;8.45;;
43337;SDS011;28933;52.492;13.434;2023-12-14T04:03:32;14.32;;;7.22;;
43337;SDS011;28933;52.492;13.434;2023-12-14T04:06:18;13.10;;;8.32;;
43337;SDS011;28933;52.492;13.434;2023-12-14T04:09:04;14.75;;;7.30;;
43337;SDS011;28933;52.492;13.434;2023-12-14T04:11:51;15.10;;;8.57;;
43337;SDS011;28933;52.492;13.434;2023-12-14T04:14:37;13.10;;;7.10;;
43337;SDS011;28933;52.492;13.434;2023-12-14T04:17:22;11.90;;;6.45;;
43337;SDS011;28933;52.492;13.434;2023-12-14T04:20:09;14.43;;;7.78;;
43337;SDS011;28933;52.492;13.434;2023-12-14T04:22:56;12.05;;;6.45;;
43337;SDS011;28933;52.492;13.434;2023-12-14T04:25:42;9.93;;;6.05;;
43337;SDS011;28933;52.492;13.434;2023-12-14T04:28:28;12.45;;;6.30;;
43337;SDS011;28933;52.492;13.434;2023-12-14T04:31:14;12.05;;;6.25;;
43337;SDS011;28933;52.492;13.434;2023-12-14T04:33:59;9.77;;;6.55;;
43337;SDS011;28933;52.492;13.434;2023-12-14T04:36:45;10.23;;;5.93;;
43337;SDS011;28933;52.492;13.434;2023-12-14T04:39:31;10.48;;;5.63;;
43337;SDS011;28933;52.492;13.434;2023-12-14T04:42:17;12.50;;;6.60;;
43337;SDS011;28933;52.492;13.434;2023-12-14T04:45:03;11.70;;;5.93;;
43337;SDS011;28933;52.492;13.434;2023-12-14T04:47:50;14.13;;;6.60;;
43337;SDS011;28933;52.492;13.434;2023-12-14T04:50:36;11.30;;;6.70;;
43337;SDS011;28933;52.492;13.434;2023-12-14T04:53:22;13.80;;;7.20;;
43337;SDS011;28933;52.492;13.434;2023-12-14T04:56:10;10.48;;;6.78;;
43337;SDS011;28933;52.492;13.434;2023-12-14T04:58:57;12.40;;;6.38;;
43337;SDS011;28933;52.492;13.434;2023-12-14T05:01:43;11.48;;;6.47;;
43337;SDS011;28933;52.492;13.434;2023-12-14T05:04:29;10.77;;;5.95;;
43337;SDS011;28933;52.492;13.434;2023-12-14T05:07:15;10.15;;;7.03;;
43337;SDS011;28933;52.492;13.434;2023-12-14T05:10:01;8.82;;;6.15;;
43337;SDS011;28933;52.492;13.434;2023-12-14T05:12:47;11.73;;;7.47;;
43337;SDS011;28933;52.492;13.434;2023-12-14T05:15:33;10.32;;;6.93;;
43337;SDS011;28933;52.492;13.434;2023-12-14T05:18:19;12.82;;;6.68;;
43337;SDS011;28933;52.492;13.434;2023-12-14T05:21:05;9.32;;;6.45;;
43337;SDS011;28933;52.492;13.434;2023-12-14T05:23:51;11.82;;;6.32;;
43337;SDS011;28933;52.492;13.434;2023-12-14T05:26:38;12.63;;;7.88;;
43337;SDS011;28933;52.492;13.434;2023-12-14T05:29:24;9.98;;;6.68;;
43337;SDS011;28933;52.492;13.434;2023-12-14T05:32:10;11.43;;;6.53;;
43337;SDS011;28933;52.492;13.434;2023-12-14T05:34:56;12.32;;;7.07;;
43337;SDS011;28933;52.492;13.434;2023-12-14T05:37:42;9.60;;;6.80;;
43337;SDS011;28933;52.492;13.434;2023-12-14T05:40:28;10.93;;;7.10;;
43337;SDS011;28933;52.492;13.434;2023-12-14T05:43:14;10.38;;;6.38;;
43337;SDS011;28933;52.492;13.434;2023-12-14T05:46:00;9.20;;;6.05;;
43337;SDS011;28933;52.492;13.434;2023-12-14T05:48:46;12.00;;;6.72;;
43337;SDS011;28933;52.492;13.434;2023-12-14T05:51:32;10.13;;;6.53;;
43337;SDS011;28933;52.492;13.434;2023-12-14T05:54:18;12.27;;;6.10;;
43337;SDS011;28933;52.492;13.434;2023-12-14T05:57:04;12.13;;;7.00;;
43337;SDS011;28933;52.492;13.434;2023-12-14T05:59:50;11.68;;;7.03;;
43337;SDS011;28933;52.492;13.434;2023-12-14T06:02:36;10.52;;;5.93;;
43337;SDS011;28933;52.492;13.434;2023-12-14T06:05:23;10.05;;;6.30;;
43337;SDS011;28933;52.492;13.434;2023-12-14T06:08:09;8.45;;;6.10;;
43337;SDS011;28933;52.492;13.434;2023-12-14T06:10:55;11.55;;;7.38;;
43337;SDS011;28933;52.492;13.434;2023-12-14T06:13:41;14.75;;;7.30;;
43337;SDS011;28933;52.492;13.434;2023-12-14T06:16:27;8.38;;;6.05;;
43337;SDS011;28933;52.492;13.434;2023-12-14T06:19:13;8.77;;;5.95;;
43337;SDS011;28933;52.492;13.434;2023-12-14T06:21:58;8.40;;;6.07;;
43337;SDS011;28933;52.492;13.434;2023-12-14T06:24:44;9.13;;;5.65;;
43337;SDS011;28933;52.492;13.434;2023-12-14T06:27:30;8.60;;;5.80;;
43337;SDS011;28933;52.492;13.434;2023-12-14T06:30:16;7.20;;;5.05;;
43337;SDS011;28933;52.492;13.434;2023-12-14T06:33:02;10.68;;;6.72;;
43337;SDS011;28933;52.492;13.434;2023-12-14T06:35:48;9.25;;;6.32;;
43337;SDS011;28933;52.492;13.434;2023-12-14T06:38:37;8.68;;;6.10;;
43337;SDS011;28933;52.492;13.434;2023-12-14T06:41:25;10.85;;;6.72;;
43337;SDS011;28933;52.492;13.434;2023-12-14T06:44:11;8.65;;;5.70;;
43337;SDS011;28933;52.492;13.434;2023-12-14T06:46:57;8.38;;;5.63;;
43337;SDS011;28933;52.492;13.434;2023-12-14T06:49:43;9.35;;;6.45;;
43337;SDS011;28933;52.492;13.434;2023-12-14T06:52:29;9.95;;;6.45;;
43337;SDS011;28933;52.492;13.434;2023-12-14T06:55:15;7.57;;;5.43;;
43337;SDS011;28933;52.492;13.434;2023-12-14T06:58:01;9.63;;;6.03;;
43337;SDS011;28933;52.492;13.434;2023-12-14T07:00:47;11.35;;;7.70;;
43337;SDS011;28933;52.492;13.434;2023-12-14T07:03:33;10.30;;;6.38;;
43337;SDS011;28933;52.492;13.434;2023-12-14T07:06:19;9.90;;;6.72;;
43337;SDS011;28933;52.492;13.434;2023-12-14T07:09:06;10.02;;;7.03;;
43337;SDS011;28933;52.492;13.434;2023-12-14T07:11:52;9.93;;;7.28;;
43337;SDS011;28933;52.492;13.434;2023-12-14T07:14:39;10.10;;;6.90;;
43337;SDS011;28933;52.492;13.434;2023-12-14T07:17:25;9.98;;;7.97;;
43337;SDS011;28933;52.492;13.434;2023-12-14T07:20:11;9.30;;;6.47;;
43337;SDS011;28933;52.492;13.434;2023-12-14T07:22:57;11.95;;;8.20;;
43337;SDS011;28933;52.492;13.434;2023-12-14T07:25:43;10.32;;;7.25;;
43337;SDS011;28933;52.492;13.434;2023-12-14T07:28:29;11.52;;;7.97;;
43337;SDS011;28933;52.492;13.434;2023-12-14T07:31:15;11.88;;;7.97;;
43337;SDS011;28933;52.492;13.434;2023-12-14T07:34:01;12.40;;;7.07;;
43337;SDS011;28933;52.492;13.434;2023-12-14T07:36:47;11.77;;;7.45;;
43337;SDS011;28933;52.492;13.434;2023-12-14T07:39:33;12.15;;;7.47;;
43337;SDS011;28933;52.492;13.434;2023-12-14T07:42:18;10.82;;;7.30;;
43337;SDS011;28933;52.492;13.434;2023-12-14T07:45:05;11.48;;;7.45;;
43337;SDS011;28933;52.492;13.434;2023-12-14T07:47:53;11.18;;;7.47;;
43337;SDS011;28933;52.492;13.434;2023-12-14T07:50:39;12.73;;;8.95;;
43337;SDS011;28933;52.492;13.434;2023-12-14T07:53:25;10.95;;;7.88;;
43337;SDS011;28933;52.492;13.434;2023-12-14T07:56:12;15.77;;;9.70;;
43337;SDS011;28933;52.492;13.434;2023-12-14T07:58:58;13.93;;;8.63;;
43337;SDS011;28933;52.492;13.434;2023-12-14T08:01:43;12.45;;;8.20;;
43337;SDS011;28933;52.492;13.434;2023-12-14T08:04:29;14.07;;;8.90;;
43337;SDS011;28933;52.492;13.434;2023-12-14T08:07:15;13.00;;;8.80;;
43337;SDS011;28933;52.492;13.434;2023-12-14T08:10:01;12.05;;;8.77;;
43337;SDS011;28933;52.492;13.434;2023-12-14T08:12:48;13.90;;;9.00;;
43337;SDS011;28933;52.492;13.434;2023-12-14T08:15:34;14.90;;;9.55;;
43337;SDS011;28933;52.492;13.434;2023-12-14T08:18:20;17.27;;;10.52;;
43337;SDS011;28933;52.492;13.434;2023-12-14T08:21:06;15.82;;;10.40;;
43337;SDS011;28933;52.492;13.434;2023-12-14T08:23:52;15.23;;;8.98;;
43337;SDS011;28933;52.492;13.434;2023-12-14T08:26:38;14.88;;;9.93;;
43337;SDS011;28933;52.492;13.434;2023-12-14T08:29:24;18.10;;;8.98;;
43337;SDS011;28933;52.492;13.434;2023-12-14T08:32:09;14.32;;;9.95;;
43337;SDS011;28933;52.492;13.434;2023-12-14T08:34:55;15.27;;;10.35;;
43337;SDS011;28933;52.492;13.434;2023-12-14T08:37:41;15.80;;;10.20;;
43337;SDS011;28933;52.492;13.434;2023-12-14T08:40:29;17.55;;;10.82;;
43337;SDS011;28933;52.492;13.434;2023-12-14T08:43:15;18.08;;;10.90;;
43337;SDS011;28933;52.492;13.434;2023-12-14T08:46:00;15.10;;;10.57;;
43337;SDS011;28933;52.492;13.434;2023-12-14T08:48:46;14.48;;;9.75;;
43337;SDS011;28933;52.492;13.434;2023-12-14T08:51:32;15.85;;;10.18;;
43337;SDS011;28933;52.492;13.434;2023-12-14T08:54:18;16.83;;;10.98;;
43337;SDS011;28933;52.492;13.434;2023-12-14T08:57:04;13.57;;;9.25;;
43337;SDS011;28933;52.492;13.434;2023-12-14T08:59:50;14.93;;;9.88;;
43337;SDS011;28933;52.492;13.434;2023-12-14T09:02:36;14.75;;;10.20;;
43337;SDS011;28933;52.492;13.434;2023-12-14T09:05:23;14.50;;;10.23;;
43337;SDS011;28933;52.492;13.434;2023-12-14T09:08:09;14.25;;;9.73;;
43337;SDS011;28933;52.492;13.434;2023-12-14T09:10:55;16.10;;;10.77;;
43337;SDS011;28933;52.492;13.434;2023-12-14T09:13:41;13.73;;;9.60;;
43337;SDS011;28933;52.492;13.434;2023-12-14T09:16:27;13.10;;;9.07;;
43337;SDS011;28933;52.492;13.434;2023-12-14T09:19:13;13.10;;;8.88;;
43337;SDS011;28933;52.492;13.434;2023-12-14T09:21:59;14.07;;;9.93;;
43337;SDS011;28933;52.492;13.434;2023-12-14T09:24:45;13.98;;;8.95;;
43337;SDS011;28933;52.492;13.434;2023-12-14T09:27:31;12.93;;;8.32;;
43337;SDS011;28933;52.492;13.434;2023-12-14T09:30:17;14.35;;;8.57;;
43337;SDS011;28933;52.492;13.434;2023-12-14T09:33:03;13.43;;;8.40;;
43337;SDS011;28933;52.492;13.434;2023-12-14T09:35:49;15.13;;;9.02;;
43337;SDS011;28933;52.492;13.434;2023-12-14T09:38:35;13.65;;;9.10;;
43337;SDS011;28933;52.492;13.434;2023-12-14T09:41:22;11.68;;;8.52;;
43337;SDS011;28933;52.492;13.434;2023-12-14T09:44:08;14.18;;;9.00;;
43337;SDS011;28933;52.492;13.434;2023-12-14T09:46:54;11.43;;;7.22;;
43337;SDS011;28933;52.492;13.434;2023-12-14T09:49:41;12.55;;;7.82;;
43337;SDS011;28933;52.492;13.434;2023-12-14T09:52:28;14.27;;;9.85;;
43337;SDS011;28933;52.492;13.434;2023-12-14T09:55:17;15.43;;;9.68;;
43337;SDS011;28933;52.492;13.434;2023-12-14T09:58:04;12.55;;;8.57;;
43337;SDS011;28933;52.492;13.434;2023-12-14T10:00:51;12.63;;;8.20;;
43337;SDS011;28933;52.492;13.434;2023-12-14T10:03:37;11.80;;;7.40;;
43337;SDS011;28933;52.492;13.434;2023-12-14T10:06:23;11.13;;;7.60;;
43337;SDS011;28933;52.492;13.434;2023-12-14T10:09:09;11.93;;;7.22;;
43337;SDS011;28933;52.492;13.434;2023-12-14T10:12:05;13.85;;;8.52;;
43337;SDS011;28933;52.492;13.434;2023-12-14T10:14:59;10.02;;;7.05;;
43337;SDS011;28933;52.492;13.434;2023-12-14T10:17:51;9.45;;;6.85;;
43337;SDS011;28933;52.492;13.434;2023-12-14T10:20:39;13.13;;;8.15;;
43337;SDS011;28933;52.492;13.434;2023-12-14T10:23:27;12.00;;;7.03;;
43337;SDS011;28933;52.492;13.434;2023-12-14T10:26:14;13.45;;;9.13;;
43337;SDS011;28933;52.492;13.434;2023-12-14T10:29:00;14.95;;;9.15;;
43337;SDS011;28933;52.492;13.434;2023-12-14T10:31:49;12.93;;;9.15;;
43337;SDS011;28933;52.492;13.434;2023-12-14T10:34:36;13.50;;;8.68;;
43337;SDS011;28933;52.492;13.434;2023-12-14T10:37:22;14.10;;;8.93;;
43337;SDS011;28933;52.492;13.434;2023-12-14T10:40:11;12.20;;;8.10;;
43337;SDS011;28933;52.492;13.434;2023-12-14T10:42:59;13.73;;;8.77;;
43337;SDS011;28933;52.492;13.434;2023-12-14T10:45:46;14.32;;;9.85;;
43337;SDS011;28933;52.492;13.434;2023-12-14T10:48:36;15.18;;;8.40;;
43337;SDS011;28933;52.492;13.434;2023-12-14T10:51:24;17.25;;;9.10;;
43337;SDS011;28933;52.492;13.434;2023-12-14T10:54:12;13.65;;;8.90;;
43337;SDS011;28933;52.492;13.434;2023-12-14T10:57:00;13.98;;;8.90;;
43337;SDS011;28933;52.492;13.434;2023-12-14T10:59:48;14.60;;;9.40;;
43337;SDS011;28933;52.492;13.434;2023-12-14T11:02:41;12.77;;;9.23;;
43337;SDS011;28933;52.492;13.434;2023-12-14T11:05:32;15.50;;;10.02;;
43337;SDS011;28933;52.492;13.434;2023-12-14T11:08:19;15.85;;;9.75;;
43337;SDS011;28933;52.492;13.434;2023-12-14T11:11:06;13.52;;;8.65;;
43337;SDS011;28933;52.492;13.434;2023-12-14T11:13:56;14.77;;;9.40;;
43337;SDS011;28933;52.492;13.434;2023-12-14T11:16:42;15.95;;;9.90;;
43337;SDS011;28933;52.492;13.434;2023-12-14T11:19:31;13.63;;;8.23;;
43337;SDS011;28933;52.492;13.434;2023-12-14T11:22:24;14.75;;;8.93;;
43337;SDS011;28933;52.492;13.434;2023-12-14T11:25:12;13.23;;;9.60;;
43337;SDS011;28933;52.492;13.434;2023-12-14T11:28:03;16.10;;;10.85;;
43337;SDS011;28933;52.492;13.434;2023-12-14T11:30:50;13.45;;;9.45;;
43337;SDS011;28933;52.492;13.434;2023-12-14T11:33:36;16.10;;;10.35;;
43337;SDS011;28933;52.492;13.434;2023-12-14T11:36:22;14.90;;;8.88;;
43337;SDS011;28933;52.492;13.434;2023-12-14T11:39:11;16.65;;;10.27;;
43337;SDS011;28933;52.492;13.434;2023-12-14T11:42:03;14.88;;;10.13;;
43337;SDS011;28933;52.492;13.434;2023-12-14T11:44:50;13.98;;;9.93;;
43337;SDS011;28933;52.492;13.434;2023-12-14T11:47:36;14.45;;;9.35;;
43337;SDS011;28933;52.492;13.434;2023-12-14T11:50:22;12.88;;;9.05;;
43337;SDS011;28933;52.492;13.434;2023-12-14T11:53:08;17.00;;;9.40;;
43337;SDS011;28933;52.492;13.434;2023-12-14T11:55:54;14.85;;;9.95;;
43337;SDS011;28933;52.492;13.434;2023-12-14T11:58:41;14.55;;;9.20;;
43337;SDS011;28933;52.492;13.434;2023-12-14T12:01:27;15.30;;;9.45;;
43337;SDS011;28933;52.492;13.434;2023-12-14T12:04:13;12.30;;;9.13;;
43337;SDS011;28933;52.492;13.434;2023-12-14T12:07:00;14.15;;;8.95;;
43337;SDS011;28933;52.492;13.434;2023-12-14T12:09:50;13.40;;;9.50;;
43337;SDS011;28933;52.492;13.434;2023-12-14T12:12:36;14.57;;;9.18;;
43337;SDS011;28933;52.492;13.434;2023-12-14T12:15:22;14.63;;;9.50;;
43337;SDS011;28933;52.492;13.434;2023-12-14T12:18:08;12.98;;;8.60;;
43337;SDS011;28933;52.492;13.434;2023-12-14T12:20:55;11.27;;;8.10;;
43337;SDS011;28933;52.492;13.434;2023-12-14T12:23:45;14.23;;;9.93;;
43337;SDS011;28933;52.492;13.434;2023-12-14T12:26:31;14.65;;;9.07;;
43337;SDS011;28933;52.492;13.434;2023-12-14T12:29:17;14.98;;;9.82;;
43337;SDS011;28933;52.492;13.434;2023-12-14T12:32:03;13.38;;;9.73;;
43337;SDS011;28933;52.492;13.434;2023-12-14T12:34:49;10.95;;;8.45;;
43337;SDS011;28933;52.492;13.434;2023-12-14T12:37:35;13.77;;;9.15;;
43337;SDS011;28933;52.492;13.434;2023-12-14T12:40:21;14.43;;;9.98;;
43337;SDS011;28933;52.492;13.434;2023-12-14T12:43:08;14.68;;;10.07;;
43337;SDS011;28933;52.492;13.434;2023-12-14T12:45:54;15.15;;;9.68;;
43337;SDS011;28933;52.492;13.434;2023-12-14T12:48:40;12.73;;;8.80;;
43337;SDS011;28933;52.492;13.434;2023-12-14T12:51:26;14.73;;;9.90;;
43337;SDS011;28933;52.492;13.434;2023-12-14T12:54:12;14.60;;;9.85;;
43337;SDS011;28933;52.492;13.434;2023-12-14T12:56:58;16.30;;;10.35;;
43337;SDS011;28933;52.492;13.434;2023-12-14T12:59:44;17.13;;;10.80;;
43337;SDS011;28933;52.492;13.434;2023-12-14T13:02:30;13.57;;;8.70;;
43337;SDS011;28933;52.492;13.434;2023-12-14T13:05:16;13.15;;;9.43;;
43337;SDS011;28933;52.492;13.434;2023-12-14T13:08:02;15.27;;;9.82;;
43337;SDS011;28933;52.492;13.434;2023-12-14T13:10:48;14.55;;;9.38;;
43337;SDS011;28933;52.492;13.434;2023-12-14T13:13:37;12.93;;;7.90;;
43337;SDS011;28933;52.492;13.434;2023-12-14T13:16:22;13.07;;;8.52;;
43337;SDS011;28933;52.492;13.434;2023-12-14T13:19:08;12.48;;;8.23;;
43337;SDS011;28933;52.492;13.434;2023-12-14T13:21:54;11.73;;;8.77;;
43337;SDS011;28933;52.492;13.434;2023-12-14T13:24:42;11.80;;;8.02;;
43337;SDS011;28933;52.492;13.434;2023-12-14T13:27:28;11.93;;;8.35;;
43337;SDS011;28933;52.492;13.434;2023-12-14T13:30:14;12.85;;;8.65;;
43337;SDS011;28933;52.492;13.434;2023-12-14T13:33:02;15.50;;;9.55;;
43337;SDS011;28933;52.492;13.434;2023-12-14T13:35:49;13.13;;;8.13;;
43337;SDS011;28933;52.492;13.434;2023-12-14T13:38:35;11.75;;;8.77;;
43337;SDS011;28933;52.492;13.434;2023-12-14T13:41:21;14.57;;;9.05;;
43337;SDS011;28933;52.492;13.434;2023-12-14T13:44:07;12.35;;;8.70;;
43337;SDS011;28933;52.492;13.434;2023-12-14T13:46:53;12.85;;;9.27;;
43337;SDS011;28933;52.492;13.434;2023-12-14T13:49:39;14.30;;;9.82;;
43337;SDS011;28933;52.492;13.434;2023-12-14T13:52:25;13.45;;;9.30;;
43337;SDS011;28933;52.492;13.434;2023-12-14T13:55:11;13.70;;;9.93;;
43337;SDS011;28933;52.492;13.434;2023-12-14T13:57:57;15.60;;;8.98;;
43337;SDS011;28933;52.492;13.434;2023-12-14T14:00:43;14.32;;;10.15;;
43337;SDS011;28933;52.492;13.434;2023-12-14T14:03:29;17.70;;;10.80;;
43337;SDS011;28933;52.492;13.434;2023-12-14T14:06:15;15.02;;;10.32;;
43337;SDS011;28933;52.492;13.434;2023-12-14T14:09:01;18.10;;;10.77;;
43337;SDS011;28933;52.492;13.434;2023-12-14T14:11:47;15.38;;;10.05;;
43337;SDS011;28933;52.492;13.434;2023-12-14T14:14:35;14.35;;;9.43;;
43337;SDS011;28933;52.492;13.434;2023-12-14T14:17:21;14.00;;;9.40;;
43337;SDS011;28933;52.492;13.434;2023-12-14T14:20:07;11.95;;;8.25;;
43337;SDS011;28933;52.492;13.434;2023-12-14T14:22:55;14.80;;;9.93;;
43337;SDS011;28933;52.492;13.434;2023-12-14T14:25:42;14.52;;;9.13;;
43337;SDS011;28933;52.492;13.434;2023-12-14T14:28:28;15.70;;;9.63;;
43337;SDS011;28933;52.492;13.434;2023-12-14T14:31:14;14.98;;;9.07;;
43337;SDS011;28933;52.492;13.434;2023-12-14T14:34:00;14.35;;;9.27;;
43337;SDS011;28933;52.492;13.434;2023-12-14T14:36:46;14.45;;;9.40;;
43337;SDS011;28933;52.492;13.434;2023-12-14T14:39:32;14.73;;;9.80;;
43337;SDS011;28933;52.492;13.434;2023-12-14T14:42:18;16.70;;;10.45;;
43337;SDS011;28933;52.492;13.434;2023-12-14T14:45:04;15.55;;;9.63;;
43337;SDS011;28933;52.492;13.434;2023-12-14T14:47:50;15.77;;;9.25;;
43337;SDS011;28933;52.492;13.434;2023-12-14T14:50:36;15.68;;;9.65;;
43337;SDS011;28933;52.492;13.434;2023-12-14T14:53:22;15.40;;;9.98;;
43337;SDS011;28933;52.492;13.434;2023-12-14T14:56:11;17.00;;;9.80;;
43337;SDS011;28933;52.492;13.434;2023-12-14T14:58:57;16.67;;;9.68;;
43337;SDS011;28933;52.492;13.434;2023-12-14T15:01:44;15.70;;;10.32;;
43337;SDS011;28933;52.492;13.434;2023-12-14T15:04:33;15.55;;;9.43;;
43337;SDS011;28933;52.492;13.434;2023-12-14T15:07:19;18.60;;;11.35;;
43337;SDS011;28933;52.492;13.434;2023-12-14T15:10:05;14.43;;;9.18;;
43337;SDS011;28933;52.492;13.434;2023-12-14T15:12:51;15.57;;;9.60;;
43337;SDS011;28933;52.492;13.434;2023-12-14T15:15:37;19.52;;;10.63;;
43337;SDS011;28933;52.492;13.434;2023-12-14T15:18:24;14.85;;;9.75;;
43337;SDS011;28933;52.492;13.434;2023-12-14T15:21:10;14.50;;;9.10;;
43337;SDS011;28933;52.492;13.434;2023-12-14T15:23:57;13.85;;;9.57;;
43337;SDS011;28933;52.492;13.434;2023-12-14T15:26:43;14.07;;;10.10;;
43337;SDS011;28933;52.492;13.434;2023-12-14T15:29:29;15.18;;;9.25;;
43337;SDS011;28933;52.492;13.434;2023-12-14T15:32:15;13.65;;;9.13;;
43337;SDS011;28933;52.492;13.434;2023-12-14T15:35:01;14.27;;;8.85;;
43337;SDS011;28933;52.492;13.434;2023-12-14T15:37:48;14.00;;;8.98;;
43337;SDS011;28933;52.492;13.434;2023-12-14T15:40:33;13.52;;;8.68;;
43337;SDS011;28933;52.492;13.434;2023-12-14T15:43:21;14.77;;;9.15;;
43337;SDS011;28933;52.492;13.434;2023-12-14T15:46:07;14.18;;;8.98;;
43337;SDS011;28933;52.492;13.434;2023-12-14T15:48:53;15.02;;;9.07;;
43337;SDS011;28933;52.492;13.434;2023-12-14T15:51:39;15.65;;;9.55;;
43337;SDS011;28933;52.492;13.434;2023-12-14T15:54:26;13.43;;;8.57;;
43337;SDS011;28933;52.492;13.434;2023-12-14T15:57:11;11.82;;;8.20;;
43337;SDS011;28933;52.492;13.434;2023-12-14T15:59:57;11.32;;;8.20;;
43337;SDS011;28933;52.492;13.434;2023-12-14T16:02:44;12.68;;;8.10;;
43337;SDS011;28933;52.492;13.434;2023-12-14T16:05:30;13.70;;;8.82;;
43337;SDS011;28933;52.492;13.434;2023-12-14T16:08:16;13.45;;;8.68;;
43337;SDS011;28933;52.492;13.434;2023-12-14T16:11:02;12.48;;;8.27;;
43337;SDS011;28933;52.492;13.434;2023-12-14T16:13:48;14.52;;;8.73;;